CheckWX is a tool to help pilots better visualize weather data.  It is not intended as a substitute for an official pre-flight weather briefing.

17:23:37 UTC

PTRO METAR
Babelthuap / Koror Airport
Babelthuap Island, Palau
Current

34 mins ago

PTRO 181650Z 27006KT 14SM SCT016 BKN120 BKN300 26/24 A2977
Observed
Aug-18 @ 16:50 UTC
Wind
  • 270° at 6 KTS
Visibility
22,500 meters
Flight Rules
VFR
Cloud Levels
  • Scattered at 1,600' AGL
  • Broken at 12,000' AGL
  • Broken at 30,000' AGL
Temperature
26°C / 79°F
Dewpoint
24°C / 75°F
Humidity
89%
Altimeter
29.77" Hg
Pressure
1008.12 hPa
Previous

2 hours ago

PTRO 181550Z 27006KT 14SM SCT016 BKN120 BKN300 26/24 A2979
Observed
Aug-18 @ 15:50 UTC
Wind
  • 270° at 6 KTS
Visibility
22,500 meters
Flight Rules
VFR
Cloud Levels
  • Scattered at 1,600' AGL
  • Broken at 12,000' AGL
  • Broken at 30,000' AGL
Temperature
26°C / 79°F
Dewpoint
24°C / 75°F
Humidity
89%
Altimeter
29.79" Hg
Pressure
1008.82 hPa
Previous

2 hours ago

PTRO 181454Z 25007KT 14SM SCT016 BKN120 BKN300 26/24 A2979
Observed
Aug-18 @ 14:54 UTC
Wind
  • 250° at 7 KTS
Visibility
22,500 meters
Flight Rules
VFR
Cloud Levels
  • Scattered at 1,600' AGL
  • Broken at 12,000' AGL
  • Broken at 30,000' AGL
Temperature
26°C / 79°F
Dewpoint
24°C / 75°F
Humidity
89%
Altimeter
29.79" Hg
Pressure
1008.82 hPa